Time;durP1;ratioP1;P1;durP2;ratioP2;P2;SDS_P1;SDS_P2;PMS_P1;PMS_P2;Temp;Humidity;BMP_temperature;BMP_pressure;BME280_temperature;BME280_humidity;BME280_pressure;Samples;Min_cycle;Max_cycle;Signal;HPM_P1;HPM_P2
2021/08/26 00:00:26;;;;;;;5.93;5.32;;;19.40;99.90;;;;;;5094327;28;20413;-80
2021/08/26 00:05:48;;;;;;;5.40;4.90;;;19.50;99.90;;;;;;5094468;28;20035;-80
2021/08/26 00:08:22;;;;;;;7.78;5.57;;;19.50;99.90;;;;;;5094386;28;20020;-79
2021/08/26 00:10:51;;;;;;;6.30;5.70;;;19.50;99.90;;;;;;5094412;28;20099;-77
2021/08/26 00:13:16;;;;;;;7.57;5.60;;;19.50;99.90;;;;;;5094091;28;20074;-78
2021/08/26 00:15:43;;;;;;;6.03;5.43;;;19.50;99.90;;;;;;5094594;28;20063;-77
2021/08/26 00:18:10;;;;;;;6.07;5.47;;;19.50;99.90;;;;;;5094543;28;20038;-77
2021/08/26 00:20:36;;;;;;;7.05;5.55;;;19.50;99.90;;;;;;5094208;28;20020;-77
2021/08/26 00:23:02;;;;;;;8.98;5.65;;;19.40;99.90;;;;;;5094318;28;20474;-77
2021/08/26 00:25:27;;;;;;;7.20;5.50;;;19.40;99.90;;;;;;5094095;28;20042;-76
2021/08/26 00:27:53;;;;;;;5.85;5.22;;;19.40;99.90;;;;;;5094437;28;20450;-77
2021/08/26 00:30:20;;;;;;;6.22;5.38;;;19.40;99.90;;;;;;5094619;28;20024;-76
2021/08/26 00:32:46;;;;;;;6.45;5.80;;;19.40;99.90;;;;;;5094247;28;20078;-77
2021/08/26 00:35:12;;;;;;;7.10;5.95;;;19.40;99.90;;;;;;5094196;28;20027;-76
2021/08/26 00:37:37;;;;;;;7.32;5.72;;;19.30;99.90;;;;;;5094518;28;20485;-78
2021/08/26 00:40:04;;;;;;;6.53;5.47;;;19.40;99.90;;;;;;5093802;28;20108;-78
2021/08/26 00:42:30;;;;;;;7.63;6.20;;;19.40;99.90;;;;;;5094023;28;20028;-76
2021/08/26 00:44:55;;;;;;;7.22;6.18;;;19.40;99.90;;;;;;5094399;28;20031;-77
2021/08/26 00:47:27;;;;;;;7.13;5.57;;;19.40;99.90;;;;;;5094317;28;20481;-77
2021/08/26 00:49:54;;;;;;;7.85;5.55;;;19.40;99.90;;;;;;5094264;28;20020;-77
2021/08/26 00:52:20;;;;;;;6.00;5.40;;;19.40;99.90;;;;;;5093944;28;20040;-77
2021/08/26 00:54:47;;;;;;;5.70;5.20;;;19.40;99.90;;;;;;5094310;28;20020;-77
2021/08/26 00:57:12;;;;;;;5.80;5.20;;;19.40;99.90;;;;;;5094187;28;20024;-77
2021/08/26 00:59:38;;;;;;;5.82;5.20;;;19.40;99.90;;;;;;5094467;28;20027;-77
2021/08/26 01:02:20;;;;;;;5.88;5.28;;;19.40;99.90;;;;;;5093665;28;20020;-77
2021/08/26 01:04:50;;;;;;;6.63;5.00;;;19.40;99.90;;;;;;5093780;28;20020;-78
2021/08/26 01:07:29;;;;;;;5.82;5.32;;;19.40;99.90;;;;;;5093823;28;20024;-76
2021/08/26 01:10:01;;;;;;;5.53;4.93;;;19.40;99.90;;;;;;5094109;28;20032;-76
2021/08/26 01:12:30;;;;;;;5.90;5.25;;;19.40;99.90;;;;;;5093782;28;20024;-76
2021/08/26 01:14:56;;;;;;;7.55;5.15;;;19.40;99.90;;;;;;5097544;28;20027;-76
2021/08/26 01:17:23;;;;;;;7.60;5.32;;;19.40;99.90;;;;;;5097746;28;20032;-77
2021/08/26 01:19:50;;;;;;;6.25;5.10;;;19.40;99.90;;;;;;5097583;28;20024;-80
2021/08/26 01:22:27;;;;;;;7.20;5.18;;;19.50;99.90;;;;;;5097519;28;20073;-79
2021/08/26 01:24:55;;;;;;;6.93;5.38;;;19.50;99.90;;;;;;5098131;28;20497;-77
2021/08/26 01:27:21;;;;;;;5.10;4.60;;;19.50;99.90;;;;;;5097460;28;20069;-77
2021/08/26 01:29:49;;;;;;;4.40;3.97;;;19.50;99.90;;;;;;5097440;28;20409;-77
2021/08/26 01:32:22;;;;;;;4.75;4.35;;;19.50;99.90;;;;;;5097214;28;20475;-79
2021/08/26 01:34:52;;;;;;;4.55;4.15;;;19.60;99.90;;;;;;5097283;28;20042;-78
2021/08/26 01:37:19;;;;;;;5.85;4.50;;;19.50;99.90;;;;;;5097535;28;20020;-77
2021/08/26 01:39:49;;;;;;;4.57;4.10;;;19.50;99.90;;;;;;5097437;28;20020;-76
2021/08/26 01:42:15;;;;;;;4.30;3.90;;;19.40;99.90;;;;;;5097573;28;20020;-77
2021/08/26 01:44:42;;;;;;;5.03;4.45;;;19.40;99.90;;;;;;5097124;28;20032;-77
2021/08/26 01:47:09;;;;;;;4.70;4.30;;;19.30;99.90;;;;;;5097046;28;20082;-76
2021/08/26 01:49:35;;;;;;;4.47;4.07;;;19.20;99.90;;;;;;5097306;28;20555;-76
2021/08/26 01:52:01;;;;;;;5.53;4.15;;;19.20;99.90;;;;;;5078580;28;20082;-76
2021/08/26 01:54:26;;;;;;;4.68;4.28;;;19.10;99.90;;;;;;5097573;28;20091;-76
2021/08/26 01:56:52;;;;;;;6.00;4.40;;;19.00;99.90;;;;;;5097101;28;20020;-76
2021/08/26 01:59:18;;;;;;;5.07;4.28;;;19.00;99.90;;;;;;5096943;28;20097;-76
2021/08/26 02:01:44;;;;;;;4.97;3.90;;;19.00;99.90;;;;;;5096796;28;20085;-76
2021/08/26 02:04:09;;;;;;;4.35;3.92;;;19.00;99.90;;;;;;5097073;28;20450;-76
2021/08/26 02:06:35;;;;;;;4.32;3.92;;;19.00;99.90;;;;;;5097402;28;20466;-76
2021/08/26 02:09:01;;;;;;;4.47;4.07;;;19.00;99.90;;;;;;5096599;28;20039;-76
2021/08/26 02:11:26;;;;;;;4.68;4.15;;;19.00;99.90;;;;;;5096838;28;20077;-76
2021/08/26 02:13:52;;;;;;;5.32;3.75;;;19.00;99.90;;;;;;5097179;28;20016;-76
2021/08/26 02:16:18;;;;;;;4.28;3.92;;;19.00;99.90;;;;;;5096727;28;20040;-76
2021/08/26 02:18:44;;;;;;;3.92;3.63;;;19.00;99.90;;;;;;5096771;28;20027;-76
2021/08/26 02:21:10;;;;;;;4.30;4.00;;;19.00;99.90;;;;;;5096674;28;20024;-76
2021/08/26 02:23:36;;;;;;;4.68;4.28;;;19.00;99.90;;;;;;5096017;28;20016;-76
2021/08/26 02:26:02;;;;;;;5.22;3.90;;;19.00;99.90;;;;;;5096987;28;20020;-76
2021/08/26 02:28:28;;;;;;;4.90;4.13;;;19.00;99.90;;;;;;5096276;28;20374;-76
2021/08/26 02:30:53;;;;;;;4.57;4.18;;;19.00;99.90;;;;;;5096531;28;20047;-77
2021/08/26 02:33:19;;;;;;;5.60;4.20;;;19.00;99.90;;;;;;5096485;28;20058;-76
2021/08/26 02:35:45;;;;;;;4.63;4.18;;;19.00;99.90;;;;;;5096215;28;20024;-77
2021/08/26 02:38:10;;;;;;;4.43;3.95;;;19.00;99.90;;;;;;5096101;28;20371;-77
2021/08/26 02:40:36;;;;;;;4.80;4.40;;;19.00;99.90;;;;;;5096735;28;20024;-78
2021/08/26 02:43:02;;;;;;;4.90;4.20;;;18.90;99.90;;;;;;5096326;28;20445;-77
2021/08/26 02:45:27;;;;;;;5.03;4.05;;;18.90;99.90;;;;;;5096342;28;20543;-77
2021/08/26 02:47:53;;;;;;;4.88;4.15;;;18.90;99.90;;;;;;5095843;28;20028;-78
2021/08/26 02:50:19;;;;;;;5.18;4.68;;;18.90;99.90;;;;;;5096156;28;20069;-78
2021/08/26 02:52:44;;;;;;;5.68;4.50;;;18.90;99.90;;;;;;5095524;28;20126;-78
2021/08/26 02:55:10;;;;;;;4.10;3.70;;;18.90;99.90;;;;;;5095747;28;20020;-79
2021/08/26 02:57:36;;;;;;;4.55;4.15;;;18.90;99.90;;;;;;5095955;28;20375;-78
2021/08/26 03:00:04;;;;;;;4.65;3.95;;;18.90;99.90;;;;;;5096041;28;20092;-78
2021/08/26 03:02:30;;;;;;;5.72;3.95;;;18.90;99.90;;;;;;5095907;28;20020;-79
2021/08/26 03:04:55;;;;;;;4.32;3.92;;;18.80;99.90;;;;;;5095840;28;20122;-79
2021/08/26 03:07:21;;;;;;;4.90;3.88;;;18.80;99.90;;;;;;5095585;28;20028;-77
2021/08/26 03:09:46;;;;;;;5.10;4.57;;;18.70;99.90;;;;;;5095465;28;20035;-78
2021/08/26 03:12:12;;;;;;;5.28;4.78;;;18.70;99.90;;;;;;5095608;28;20521;-79
2021/08/26 03:14:38;;;;;;;4.88;4.13;;;18.60;99.90;;;;;;5095554;28;20067;-79
2021/08/26 03:17:03;;;;;;;4.25;3.90;;;18.60;99.90;;;;;;5095370;28;20055;-79
2021/08/26 03:19:29;;;;;;;5.20;4.15;;;18.60;99.90;;;;;;5095479;28;20485;-79
2021/08/26 03:21:55;;;;;;;5.60;4.05;;;18.60;99.90;;;;;;5095256;28;20028;-78
2021/08/26 03:24:20;;;;;;;5.32;4.82;;;18.60;99.90;;;;;;5095275;28;20543;-78
2021/08/26 03:26:46;;;;;;;6.20;5.30;;;18.50;99.90;;;;;;5095433;28;20466;-78
2021/08/26 03:29:12;;;;;;;7.03;6.30;;;18.50;99.90;;;;;;5077015;28;20110;-79
2021/08/26 03:31:37;;;;;;;6.57;5.97;;;18.50;99.90;;;;;;5095276;28;20485;-79
2021/08/26 03:34:03;;;;;;;5.75;5.15;;;18.50;99.90;;;;;;5095001;28;20120;-79
2021/08/26 03:36:29;;;;;;;5.70;4.85;;;18.50;99.90;;;;;;5094140;28;20058;-79
2021/08/26 03:38:55;;;;;;;7.25;4.95;;;18.50;99.90;;;;;;5095159;28;20102;-79
2021/08/26 03:41:22;;;;;;;5.50;5.00;;;18.50;99.90;;;;;;5076751;28;20360;-79
2021/08/26 03:43:50;;;;;;;5.15;4.50;;;18.50;99.90;;;;;;5095097;28;20018;-79
2021/08/26 03:46:16;;;;;;;7.75;4.85;;;18.50;99.90;;;;;;5094818;28;20016;-79
2021/08/26 03:48:42;;;;;;;5.25;4.30;;;18.60;99.90;;;;;;5094683;28;20076;-79
2021/08/26 03:51:08;;;;;;;5.32;4.40;;;18.50;99.90;;;;;;5094749;28;20048;-79
2021/08/26 03:53:33;;;;;;;5.97;4.70;;;18.60;99.90;;;;;;5094630;28;20432;-79
2021/08/26 03:55:59;;;;;;;4.75;4.35;;;18.60;99.90;;;;;;5076481;28;20028;-79
2021/08/26 03:58:25;;;;;;;4.93;4.28;;;18.60;99.90;;;;;;5094560;28;20073;-79
2021/08/26 04:00:51;;;;;;;6.80;4.97;;;18.70;99.90;;;;;;5076310;28;20123;-79
2021/08/26 04:03:16;;;;;;;4.97;4.47;;;18.70;99.90;;;;;;5094727;28;20024;-79
2021/08/26 04:05:42;;;;;;;16.30;12.60;;;18.80;99.90;;;;;;5094375;28;20035;-79
2021/08/26 04:08:08;;;;;;;7.53;6.18;;;18.90;99.90;;;;;;5094619;28;20476;-79
2021/08/26 04:10:33;;;;;;;5.75;4.70;;;18.90;99.90;;;;;;5094358;28;20058;-78
2021/08/26 04:12:59;;;;;;;5.43;4.30;;;19.00;99.90;;;;;;5094554;28;20024;-79
2021/08/26 04:15:25;;;;;;;5.53;5.03;;;19.00;99.90;;;;;;5094586;28;20032;-78
2021/08/26 04:17:50;;;;;;;5.75;5.10;;;19.10;99.90;;;;;;5094277;28;20462;-78
2021/08/26 04:20:16;;;;;;;5.85;5.05;;;19.20;99.90;;;;;;5094171;28;20020;-78
2021/08/26 04:22:42;;;;;;;5.18;4.68;;;19.30;99.90;;;;;;5094418;28;20462;-78
2021/08/26 04:25:09;;;;;;;4.78;4.13;;;19.40;99.90;;;;;;5094071;28;20420;-78
2021/08/26 04:27:36;;;;;;;4.47;4.15;;;19.30;99.90;;;;;;5094197;28;20050;-75
2021/08/26 04:30:03;;;;;;;6.18;4.70;;;19.40;99.90;;;;;;5093979;28;20056;-79
2021/08/26 04:32:29;;;;;;;4.72;4.20;;;19.50;99.90;;;;;;5093958;28;20034;-79
2021/08/26 04:34:54;;;;;;;4.40;4.00;;;19.50;99.90;;;;;;5094260;28;20556;-80
2021/08/26 04:37:20;;;;;;;4.25;3.85;;;19.60;99.90;;;;;;5075797;28;20428;-79
2021/08/26 04:39:46;;;;;;;4.40;4.00;;;19.60;99.90;;;;;;5075767;28;20107;-80
2021/08/26 04:42:12;;;;;;;4.65;4.18;;;19.70;99.90;;;;;;5094171;28;20021;-79
2021/08/26 04:44:37;;;;;;;5.05;3.90;;;19.80;99.90;;;;;;5093812;28;20105;-80
2021/08/26 04:47:03;;;;;;;4.10;3.80;;;19.80;99.90;;;;;;5093971;28;20024;-80
2021/08/26 04:49:28;;;;;;;4.80;4.22;;;19.90;99.90;;;;;;5094083;28;20028;-81
2021/08/26 04:51:54;;;;;;;3.95;3.63;;;20.00;99.90;;;;;;5075399;28;20472;-81
2021/08/26 04:54:20;;;;;;;5.80;4.20;;;20.00;99.90;;;;;;5075708;28;20020;-81
2021/08/26 04:56:46;;;;;;;4.15;3.80;;;20.10;99.90;;;;;;5093716;28;20031;-79
2021/08/26 04:59:11;;;;;;;5.57;4.25;;;20.20;99.90;;;;;;5093699;28;20027;-81
2021/08/26 05:01:37;;;;;;;4.15;3.75;;;20.20;99.90;;;;;;5093978;28;20055;-79
2021/08/26 05:04:03;;;;;;;4.10;3.70;;;20.30;99.90;;;;;;5093937;28;20081;-81
2021/08/26 05:06:31;;;;;;;4.40;4.00;;;20.30;99.90;;;;;;5093622;28;20024;-81
2021/08/26 05:08:57;;;;;;;4.20;3.80;;;20.40;99.90;;;;;;5093602;28;20028;-80
2021/08/26 05:11:22;;;;;;;3.97;3.67;;;20.50;99.90;;;;;;5093461;28;20077;-79
2021/08/26 05:13:48;;;;;;;4.32;3.80;;;20.50;99.90;;;;;;5093214;28;20107;-79
2021/08/26 05:16:15;;;;;;;4.72;3.85;;;20.60;99.90;;;;;;5093573;28;20046;-80
2021/08/26 05:18:41;;;;;;;5.15;3.90;;;20.70;99.90;;;;;;5093812;28;20012;-80
2021/08/26 05:21:07;;;;;;;4.50;4.10;;;20.60;99.90;;;;;;5093774;28;20058;-80
2021/08/26 05:23:34;;;;;;;13.52;4.07;;;20.70;99.90;;;;;;5093496;28;20024;-80
2021/08/26 05:26:00;;;;;;;4.60;3.90;;;20.70;99.90;;;;;;5093690;28;20024;-79
2021/08/26 05:28:25;;;;;;;4.20;3.80;;;20.80;99.90;;;;;;5093449;28;20032;-80
2021/08/26 05:30:51;;;;;;;5.32;3.70;;;20.80;99.90;;;;;;5075235;28;20046;-80
2021/08/26 05:33:16;;;;;;;3.70;3.40;;;20.80;99.90;;;;;;5092726;28;20024;-80
2021/08/26 05:35:42;;;;;;;4.68;3.88;;;20.90;99.90;;;;;;5093321;28;20101;-80
2021/08/26 05:38:08;;;;;;;4.90;3.78;;;21.00;99.90;;;;;;5093301;28;20032;-81
2021/08/26 05:40:33;;;;;;;3.92;3.63;;;21.00;99.90;;;;;;5093161;28;20402;-79
2021/08/26 05:43:00;;;;;;;4.97;3.85;;;21.10;99.90;;;;;;5093203;28;20103;-80
2021/08/26 05:45:27;;;;;;;5.20;3.97;;;21.00;99.90;;;;;;5075036;28;20028;-83
2021/08/26 05:47:56;;;;;;;4.22;3.67;;;21.10;99.90;;;;;;5092995;28;20020;-82
2021/08/26 05:50:25;;;;;;;4.40;4.00;;;21.20;99.90;;;;;;5093234;28;20423;-84
2021/08/26 05:52:51;;;;;;;3.78;3.40;;;21.20;99.90;;;;;;5092939;28;20136;-83
2021/08/26 05:55:18;;;;;;;4.15;3.75;;;21.40;99.90;;;;;;5093497;28;20103;-84
2021/08/26 05:57:45;;;;;;;4.35;3.88;;;21.40;99.90;;;;;;5074980;28;20059;-83
2021/08/26 06:00:11;;;;;;;4.78;3.85;;;21.40;99.90;;;;;;5077373;28;20046;-82
2021/08/26 06:02:38;;;;;;;3.95;3.58;;;21.50;99.90;;;;;;5078900;28;20024;-83
2021/08/26 06:05:04;;;;;;;3.90;3.50;;;21.60;99.90;;;;;;5097132;28;20031;-84
2021/08/26 06:07:30;;;;;;;3.72;3.38;;;21.60;99.90;;;;;;5097099;28;20024;-83
2021/08/26 06:09:55;;;;;;;4.47;3.50;;;21.60;99.90;;;;;;5096594;28;20028;-84
2021/08/26 06:12:21;;;;;;;7.35;5.68;;;21.50;99.90;;;;;;5095309;28;20035;-83
2021/08/26 06:14:47;;;;;;;4.32;3.88;;;21.50;99.90;;;;;;5095546;28;20104;-83
2021/08/26 06:17:12;;;;;;;3.90;3.40;;;21.40;99.90;;;;;;5078485;28;20469;-82
2021/08/26 06:19:38;;;;;;;3.75;3.30;;;21.50;99.90;;;;;;5096391;28;20417;-80
2021/08/26 06:22:04;;;;;;;3.58;3.28;;;21.50;99.90;;;;;;5096441;28;20032;-77
2021/08/26 06:24:29;;;;;;;13.63;9.85;;;21.50;99.90;;;;;;5096563;28;20048;-76
2021/08/26 06:26:58;;;;;;;8.45;6.60;;;21.50;99.90;;;;;;5096306;28;20485;-77
2021/08/26 17:38:13;;;;;;;17.58;14.13;;;18.80;99.90;;;;;;5106746;27;20435;-77
2021/08/26 17:40:39;;;;;;;15.77;13.80;;;18.80;99.90;;;;;;5089443;28;20425;-79
2021/08/26 17:43:05;;;;;;;15.43;12.93;;;18.80;99.90;;;;;;5090786;28;20047;-79
2021/08/26 17:45:33;;;;;;;27.52;21.80;;;18.80;99.90;;;;;;5090746;28;20103;-81
2021/08/26 17:47:59;;;;;;;21.02;16.65;;;18.90;99.90;;;;;;5090633;28;20024;-80
2021/08/26 17:50:26;;;;;;;20.73;16.70;;;19.00;99.90;;;;;;5089629;28;20058;-79
2021/08/26 17:52:54;;;;;;;22.48;17.95;;;19.10;99.90;;;;;;5072468;28;20025;-80
2021/08/26 17:55:20;;;;;;;21.33;18.00;;;19.20;99.90;;;;;;5089212;28;20099;-79
2021/08/26 17:57:48;;;;;;;20.85;16.65;;;19.30;99.90;;;;;;5089212;28;20024;-79
2021/08/26 18:00:16;;;;;;;16.58;14.68;;;19.40;99.90;;;;;;5069043;28;20472;-80
2021/08/26 18:02:47;;;;;;;14.00;12.15;;;19.50;99.90;;;;;;5065559;28;20032;-80
2021/08/26 18:05:19;;;;;;;14.70;12.52;;;19.50;99.90;;;;;;5049536;28;20387;-81
2021/08/26 18:07:48;;;;;;;12.98;11.68;;;19.60;99.90;;;;;;5065708;28;20036;-81
2021/08/26 18:10:14;;;;;;;14.77;12.23;;;19.70;99.90;;;;;;5065667;28;20430;-81
2021/08/26 18:15:57;;;;;;;12.77;11.48;;;19.80;99.90;;;;;;5049937;28;20119;-80
2021/08/26 18:18:23;;;;;;;11.73;10.38;;;19.80;99.90;;;;;;5048765;28;20017;-80
2021/08/26 18:20:48;;;;;;;12.88;11.57;;;19.90;99.90;;;;;;5049982;28;20108;-80
2021/08/26 18:23:14;;;;;;;17.38;11.98;;;19.90;99.90;;;;;;5049962;28;20029;-81
2021/08/26 18:25:40;;;;;;;14.52;13.00;;;20.00;99.90;;;;;;5049706;28;20422;-81
2021/08/26 18:28:06;;;;;;;18.15;14.35;;;20.00;99.90;;;;;;5064910;28;20567;-81
2021/08/26 18:30:32;;;;;;;13.60;12.02;;;20.00;99.90;;;;;;5065219;28;20083;-81
2021/08/26 18:32:59;;;;;;;12.25;11.00;;;20.00;99.90;;;;;;5064921;28;20025;-80
2021/08/26 18:35:26;;;;;;;11.13;9.90;;;20.10;99.90;;;;;;5049412;28;20026;-80
2021/08/26 18:37:52;;;;;;;15.23;12.40;;;20.00;99.90;;;;;;5048487;28;20389;-82
2021/08/26 18:40:18;;;;;;;12.65;10.93;;;20.10;99.90;;;;;;5064690;28;20023;-82
2021/08/26 18:42:44;;;;;;;10.05;9.05;;;20.10;99.90;;;;;;5049622;28;20031;-82
2021/08/26 18:45:10;;;;;;;10.48;9.05;;;20.10;99.90;;;;;;5064783;28;20148;-81
2021/08/26 18:47:36;;;;;;;9.30;8.23;;;20.10;99.90;;;;;;5045775;28;20036;-82
2021/08/26 18:50:04;;;;;;;10.63;9.13;;;20.10;99.90;;;;;;5062712;28;20028;-81
2021/08/26 18:52:29;;;;;;;9.52;8.18;;;20.10;99.90;;;;;;5055786;28;20489;-82
2021/08/26 18:54:55;;;;;;;10.90;9.07;;;20.20;99.90;;;;;;5054806;28;20028;-82
2021/08/26 18:57:21;;;;;;;9.77;8.77;;;20.20;99.90;;;;;;5055884;28;20039;-81
2021/08/26 18:59:50;;;;;;;9.95;8.95;;;20.20;99.90;;;;;;5055879;28;20021;-81
2021/08/26 19:02:16;;;;;;;9.50;8.55;;;20.20;99.90;;;;;;5055726;28;20021;-81
2021/08/26 19:04:42;;;;;;;10.25;8.57;;;20.10;99.90;;;;;;5054495;28;20036;-82
2021/08/26 19:07:08;;;;;;;11.82;9.85;;;20.20;99.90;;;;;;5054418;28;20052;-82
2021/08/26 19:09:34;;;;;;;8.60;7.80;;;20.20;99.90;;;;;;5055477;28;20029;-81
2021/08/26 19:12:00;;;;;;;9.82;8.82;;;20.20;99.90;;;;;;5054609;28;20437;-82
2021/08/26 19:14:26;;;;;;;9.07;8.18;;;20.20;99.90;;;;;;5054377;28;20078;-82
2021/08/26 19:16:52;;;;;;;9.55;8.55;;;20.20;99.90;;;;;;5054474;28;20029;-82
2021/08/26 19:19:18;;;;;;;9.23;8.32;;;20.10;99.90;;;;;;5055771;28;20150;-82
2021/08/26 19:21:44;;;;;;;9.32;8.43;;;20.10;99.90;;;;;;5055767;28;20028;-83
2021/08/26 19:24:10;;;;;;;9.30;8.25;;;20.10;99.90;;;;;;5055548;28;20029;-82
2021/08/26 19:26:37;;;;;;;10.73;8.88;;;20.20;99.90;;;;;;5055309;28;20083;-82
2021/08/26 19:29:04;;;;;;;9.35;8.45;;;20.20;99.90;;;;;;5065279;28;20510;-82
2021/08/26 19:31:30;;;;;;;10.40;8.27;;;20.10;99.90;;;;;;5035331;28;20468;-83
2021/08/26 19:33:56;;;;;;;8.10;7.30;;;20.20;99.90;;;;;;5035144;28;20028;-82
2021/08/26 19:36:24;;;;;;;8.00;7.20;;;20.10;99.90;;;;;;5047562;28;20064;-83
2021/08/26 19:38:52;;;;;;;7.72;6.93;;;20.10;99.90;;;;;;5055201;28;20024;-82
2021/08/26 19:41:18;;;;;;;8.90;7.00;;;20.10;99.90;;;;;;5055072;28;20464;-83
2021/08/26 19:43:44;;;;;;;8.63;6.15;;;20.10;99.90;;;;;;5054948;28;20172;-82
2021/08/26 19:46:10;;;;;;;7.50;6.53;;;20.00;99.90;;;;;;5055017;28;20440;-82
2021/08/26 19:48:35;;;;;;;7.25;6.55;;;20.00;99.90;;;;;;5054687;28;20033;-83
2021/08/26 19:51:01;;;;;;;10.15;6.43;;;20.00;99.90;;;;;;5053433;28;20032;-82
2021/08/26 19:53:27;;;;;;;7.43;6.43;;;20.00;99.90;;;;;;5053618;28;20029;-82
2021/08/26 19:55:52;;;;;;;6.80;6.10;;;19.90;99.90;;;;;;5053567;28;20427;-83
2021/08/26 19:58:18;;;;;;;7.18;6.20;;;20.00;99.90;;;;;;5053974;28;20417;-83
2021/08/26 20:00:44;;;;;;;6.90;6.20;;;19.90;99.90;;;;;;5053812;28;20021;-83
2021/08/26 20:03:09;;;;;;;7.07;6.35;;;19.90;99.90;;;;;;5053475;28;20074;-83
2021/08/26 20:05:35;;;;;;;7.00;6.30;;;19.90;99.90;;;;;;5054658;28;20100;-82
2021/08/26 20:08:01;;;;;;;7.43;6.72;;;19.90;99.90;;;;;;5054512;28;20039;-83
2021/08/26 20:10:27;;;;;;;7.20;6.32;;;19.90;99.90;;;;;;5053236;28;20120;-82
2021/08/26 20:12:53;;;;;;;6.82;6.15;;;19.90;99.90;;;;;;5053260;28;20025;-83
2021/08/26 20:15:19;;;;;;;7.43;6.43;;;19.90;99.90;;;;;;5053593;28;20049;-83
2021/08/26 20:17:46;;;;;;;7.60;6.65;;;19.90;99.90;;;;;;5054649;28;20040;-82
2021/08/26 20:20:13;;;;;;;9.93;8.18;;;19.90;99.90;;;;;;5053545;28;20027;-82
2021/08/26 20:22:39;;;;;;;12.75;11.30;;;19.90;99.90;;;;;;5036720;28;20112;-82
2021/08/26 20:25:05;;;;;;;11.95;10.30;;;19.90;99.90;;;;;;5053362;28;20498;-82
2021/08/26 20:27:31;;;;;;;7.80;7.00;;;20.00;99.90;;;;;;5053114;28;20033;-82
2021/08/26 20:29:58;;;;;;;8.75;6.90;;;20.00;99.90;;;;;;5052955;28;20025;-82
2021/08/26 20:32:24;;;;;;;7.47;6.78;;;20.00;99.90;;;;;;5054589;28;20096;-82
2021/08/26 20:34:51;;;;;;;7.75;7.03;;;20.00;99.90;;;;;;5054466;28;20048;-82
2021/08/26 20:37:18;;;;;;;7.28;6.43;;;20.00;99.90;;;;;;5054028;28;20128;-81
2021/08/26 20:39:43;;;;;;;6.68;6.05;;;20.00;99.90;;;;;;5054053;28;20706;-82
2021/08/26 20:42:09;;;;;;;7.07;6.38;;;20.00;99.90;;;;;;5052648;28;20040;-82
2021/08/26 20:44:35;;;;;;;7.22;6.13;;;20.00;99.90;;;;;;5053953;28;20025;-82
2021/08/26 20:47:01;;;;;;;7.75;6.95;;;20.00;99.90;;;;;;5054018;28;20109;-82
2021/08/26 20:49:26;;;;;;;9.93;7.20;;;20.00;99.90;;;;;;5052588;28;20363;-82
2021/08/26 20:51:52;;;;;;;7.22;6.53;;;20.00;99.90;;;;;;5053034;28;20029;-82
2021/08/26 20:54:18;;;;;;;9.18;7.88;;;20.00;99.90;;;;;;5053674;28;20078;-82
2021/08/26 20:56:44;;;;;;;9.63;6.78;;;20.00;99.90;;;;;;5053881;28;20107;-82
2021/08/26 20:59:11;;;;;;;7.53;6.80;;;20.00;99.90;;;;;;5053963;28;20033;-82
2021/08/26 21:01:37;;;;;;;8.43;7.40;;;20.00;99.90;;;;;;5052897;28;20025;-82
2021/08/26 21:04:03;;;;;;;7.57;6.78;;;20.00;99.90;;;;;;5052204;28;20025;-82
2021/08/26 21:06:31;;;;;;;7.03;6.35;;;20.00;99.90;;;;;;5052682;28;20513;-82
2021/08/26 21:08:58;;;;;;;7.47;6.78;;;20.10;99.90;;;;;;5053916;28;20021;-82
2021/08/26 21:11:23;;;;;;;7.65;6.75;;;20.10;99.90;;;;;;5053440;28;20029;-83
2021/08/26 21:17:12;;;;;;;7.80;7.00;;;20.10;99.90;;;;;;5053540;28;20036;-83
2021/08/26 21:19:37;;;;;;;9.40;8.40;;;20.20;99.90;;;;;;5053500;28;20021;-82
2021/08/26 21:22:04;;;;;;;9.20;8.30;;;20.20;99.90;;;;;;5053364;28;20075;-82
2021/08/26 21:27:52;;;;;;;9.43;8.10;;;20.10;99.90;;;;;;5053691;28;20081;-82
2021/08/26 21:30:18;;;;;;;8.35;7.55;;;20.10;99.90;;;;;;5051835;28;20017;-83
2021/08/26 21:32:43;;;;;;;8.73;7.60;;;20.00;99.90;;;;;;5052071;28;20025;-82
2021/08/26 21:35:11;;;;;;;8.70;7.78;;;20.00;99.90;;;;;;5053245;28;20032;-82
2021/08/26 21:37:37;;;;;;;9.48;8.40;;;20.00;99.90;;;;;;5052697;28;20136;-83
2021/08/26 21:40:04;;;;;;;9.73;8.73;;;20.00;99.90;;;;;;5052347;28;20410;-82
2021/08/26 21:42:30;;;;;;;9.32;8.30;;;20.00;99.90;;;;;;5052234;28;20017;-82
2021/08/26 21:44:55;;;;;;;10.55;7.95;;;20.00;99.90;;;;;;5035734;28;20380;-83
2021/08/26 21:47:22;;;;;;;8.32;7.40;;;20.00;99.90;;;;;;5053230;28;20498;-82
2021/08/26 21:49:47;;;;;;;10.35;8.55;;;20.00;99.90;;;;;;5051819;28;20025;-82
2021/08/26 21:52:13;;;;;;;8.75;7.90;;;20.00;99.90;;;;;;5053005;28;20032;-83
2021/08/26 21:54:40;;;;;;;9.63;8.32;;;20.00;99.90;;;;;;5035668;28;20056;-83
2021/08/26 21:57:06;;;;;;;9.65;8.65;;;19.90;99.90;;;;;;5051519;28;20025;-81
2021/08/26 21:59:32;;;;;;;10.05;9.05;;;20.00;99.90;;;;;;5051601;28;20079;-83
2021/08/26 22:01:58;;;;;;;10.98;9.20;;;20.00;99.90;;;;;;5051660;28;20021;-82
2021/08/26 22:04:24;;;;;;;9.55;8.60;;;20.00;99.90;;;;;;5052035;28;20048;-82
2021/08/26 22:06:50;;;;;;;13.13;8.88;;;20.00;99.90;;;;;;5051112;28;20523;-83
2021/08/26 22:09:18;;;;;;;10.18;9.13;;;20.00;99.90;;;;;;5052931;28;20748;-82
2021/08/26 22:11:45;;;;;;;9.63;8.68;;;20.00;99.90;;;;;;5053080;28;20487;-82
2021/08/26 22:14:11;;;;;;;9.27;8.38;;;19.90;99.90;;;;;;5053049;28;20151;-82
2021/08/26 22:16:38;;;;;;;10.65;9.55;;;19.90;99.90;;;;;;5052794;28;20115;-82
2021/08/26 22:19:06;;;;;;;11.40;8.98;;;19.90;99.90;;;;;;5052927;28;20028;-82
2021/08/26 22:21:31;;;;;;;10.38;8.90;;;19.90;99.90;;;;;;5052931;28;20029;-83
2021/08/26 22:23:57;;;;;;;10.90;9.25;;;19.90;99.90;;;;;;5037171;28;20036;-82
2021/08/26 22:26:24;;;;;;;10.20;9.20;;;20.00;99.90;;;;;;5055334;28;20028;-82
2021/08/26 22:28:52;;;;;;;10.05;8.73;;;20.00;99.90;;;;;;5056649;28;20029;-80
2021/08/26 22:31:18;;;;;;;10.95;8.95;;;20.00;99.90;;;;;;5056617;28;20027;-81
2021/08/26 22:33:44;;;;;;;10.40;9.30;;;20.00;99.90;;;;;;5056248;28;20446;-82
2021/08/26 22:36:11;;;;;;;12.15;9.93;;;20.00;99.90;;;;;;5056029;28;20063;-83
2021/08/26 22:38:39;;;;;;;10.93;9.93;;;20.00;99.90;;;;;;5055524;28;20025;-82
2021/08/26 22:41:06;;;;;;;10.55;9.48;;;20.00;99.90;;;;;;5055087;28;20029;-81
2021/08/26 22:43:34;;;;;;;10.38;9.27;;;20.00;99.90;;;;;;5054990;28;20029;-82
2021/08/26 22:45:59;;;;;;;10.98;9.85;;;20.00;99.90;;;;;;5054992;28;20028;-82
2021/08/26 22:48:26;;;;;;;10.80;9.73;;;20.00;99.90;;;;;;5054700;28;20021;-81
2021/08/26 22:50:52;;;;;;;10.98;9.70;;;20.00;99.90;;;;;;5054875;28;20459;-81
2021/08/26 22:53:18;;;;;;;10.23;9.20;;;20.00;99.90;;;;;;5038237;28;20029;-82
2021/08/26 22:55:43;;;;;;;11.07;9.98;;;20.00;99.90;;;;;;5054878;28;20024;-82
2021/08/26 22:58:10;;;;;;;11.10;10.00;;;20.00;99.90;;;;;;5054711;28;20082;-81
2021/08/26 23:00:37;;;;;;;11.55;10.32;;;20.00;99.90;;;;;;5055861;28;20059;-82
2021/08/26 23:03:03;;;;;;;10.98;9.85;;;20.00;99.90;;;;;;5054639;28;20021;-82
2021/08/26 23:05:30;;;;;;;12.07;10.82;;;20.00;99.90;;;;;;5054509;28;20045;-82
2021/08/26 23:07:57;;;;;;;10.98;9.85;;;20.00;99.90;;;;;;5055687;28;20029;-82
2021/08/26 23:10:23;;;;;;;13.18;11.05;;;20.00;99.90;;;;;;5054678;28;20387;-82
2021/08/26 23:12:49;;;;;;;12.60;10.02;;;20.00;99.90;;;;;;5054173;28;20029;-82
2021/08/26 23:15:15;;;;;;;12.52;10.45;;;20.00;99.90;;;;;;5055801;28;20478;-81
2021/08/26 23:17:41;;;;;;;10.98;9.35;;;20.00;99.90;;;;;;5054267;28;20039;-81
2021/08/26 23:20:07;;;;;;;14.38;11.20;;;20.00;99.90;;;;;;5055667;28;20079;-82
2021/08/26 23:22:34;;;;;;;11.45;10.23;;;20.00;99.90;;;;;;5055687;28;20071;-82
2021/08/26 23:25:00;;;;;;;10.80;9.70;;;20.00;99.90;;;;;;5055354;28;20364;-82
2021/08/26 23:27:26;;;;;;;11.98;10.48;;;20.10;99.90;;;;;;5054081;28;20074;-82
2021/08/26 23:29:51;;;;;;;11.73;10.52;;;20.00;99.90;;;;;;5053828;28;20379;-81
2021/08/26 23:32:17;;;;;;;12.88;10.68;;;20.00;99.90;;;;;;5054138;28;20043;-82
2021/08/26 23:34:43;;;;;;;12.27;11.07;;;20.00;99.90;;;;;;5055404;28;20074;-82
2021/08/26 23:37:09;;;;;;;12.77;11.00;;;20.00;99.90;;;;;;5055024;28;20128;-82
2021/08/26 23:39:35;;;;;;;12.75;10.80;;;20.00;99.90;;;;;;5055112;28;20064;-82
2021/08/26 23:42:01;;;;;;;13.15;11.85;;;20.00;99.90;;;;;;5053864;28;20025;-81
2021/08/26 23:44:26;;;;;;;18.20;12.18;;;20.00;99.90;;;;;;5053954;28;20021;-81
2021/08/26 23:46:52;;;;;;;14.20;12.65;;;19.90;99.90;;;;;;5055001;28;20487;-82
2021/08/26 23:49:18;;;;;;;18.08;13.60;;;20.00;99.90;;;;;;5054111;28;20021;-81
2021/08/26 23:51:45;;;;;;;16.52;13.05;;;20.00;99.90;;;;;;5054033;28;20036;-82
2021/08/26 23:54:11;;;;;;;16.50;12.85;;;20.00;99.90;;;;;;5055066;28;20047;-82
2021/08/26 23:56:37;;;;;;;18.50;14.30;;;20.00;99.90;;;;;;5054832;28;20471;-82
2021/08/26 23:59:02;;;;;;;20.73;15.25;;;20.00;99.90;;;;;;5053475;28;20112;-82
